Falls City, Oregon
Current Conditions -  °F | °C
As of 12:56 PM on Friday 19 Dec 2014 (Local Time) from KSLE Reporting Station
Broken Clouds Broken Clouds  
Wind Chill: 51°   Ceiling: 7000
Heat Index: 51°   Visibility: 10mi
Dew Point: 44°   Wind: 10mph
Humidity: 77%   Direction: 160°SSE
Pressure: 30.01"   Gusts: NA
Location:  44.87°N, 123.44°W
Report Text: KSLE 192056Z 16009KT 10SM BKN070 BKN100 11/07 A3001 RMK AO2 SLP164 T01060067 50002
Loading
Personal Weather Stations






























Interactive Weather Map New forecast layout! Learn more

10-Day Weather Forecast

Advertisements
Track Severe Weather on mobile